• Join FlightAware (Why Join?)
  • Login
  • US Flag 
 
03:40PM EST


 

Airport Tracker/Info


-or-


 

Live Flight TrackerFlight Track Log ✈ GJS3707 ✈ 14-Jul-2013 ✈ KBOI - KORD

Flight Track Log - Related Links

Times and Time Zones

All times are in EDT time to prevent confusion due to time zone crossing. See the GJS3707 flight status page for this flight to view local times or setup timezone preferences in your user account.

Time Position Orientation Groundspeed Altitude Reporting Facility
EDT Latitude Longitude Course Direction KTS MPH feet Rate Location/Type
03:26PM 43.5878 -116.3006 81° East 198 228 4,700  Level Salt Lake Center
03:27PM 43.6297 -116.3628 313° West 238 274 6,900 2,040 Climbing Salt Lake Center
03:28PM 43.6480 -115.5702 82° East  Level FlightAware Approximate
03:28PM 43.6622 -116.2822 61° Northeast 250 288 9,000  Level Salt Lake Center
03:29PM 43.6694 -115.4090 81° East  Level FlightAware Approximate
03:30PM 43.6954 -115.2473 65° Northeast  Level FlightAware Approximate
03:30PM 43.6922 -116.0381 80° East 335 386 11,100  Level Salt Lake Center
03:31PM 43.7167 -115.0836 81° East  Level FlightAware Approximate
03:31PM 43.7108 -115.8794 81° East 370 426 12,700  Level Salt Lake Center
03:32PM 43.7364 -115.7397 76° East 394 453 14,400 1,740 Climbing Salt Lake Center
03:33PM 43.7892 -115.5839 65° Northeast 403 464 16,300 1,620 Climbing Salt Lake Center
03:34PM 43.8369 -115.4486 64° Northeast 410 472 17,800 1,680 Climbing Salt Lake Center
03:35PM 43.8650 -115.2753 77° East 419 482 19,800 1,620 Climbing Salt Lake Center
03:36PM 43.8792 -115.1228 83° East 418 481 21,200 1,380 Climbing Salt Lake Center
03:37PM 43.8922 -114.9661 83° East 427 491 22,700 1,320 Climbing Salt Lake Center
03:38PM 43.9072 -114.7817 83° East 432 497 24,000 1,140 Climbing Salt Lake Center
03:39PM 43.9214 -114.6189 83° East 443 510 25,100 1,020 Climbing Salt Lake Center
03:40PM 43.9361 -114.4236 84° East 454 522 26,200 840 Climbing Salt Lake Center
03:41PM 43.9506 -114.2542 83° East 463 533 26,900 720 Climbing Salt Lake Center
03:42PM 43.9642 -114.0519 85° East 470 541 27,800 900 Climbing Salt Lake Center
03:43PM 43.9797 -113.8558 84° East 484 557 28,800 720 Climbing Salt Lake Center
03:44PM 43.9933 -113.6761 84° East 489 563 29,400 600 Climbing Salt Lake Center
03:45PM 44.0061 -113.4628 85° East 494 568 30,100 540 Climbing Salt Lake Center
03:46PM 44.0208 -113.2775 84° East 502 578 30,600 480 Climbing Salt Lake Center
03:48PM 44.0372 -113.0589 84° East 509 586 31,100 480 Climbing Salt Lake Center
03:49PM 44.0483 -112.8681 85° East 516 594 31,600 480 Climbing Salt Lake Center
03:50PM 44.0608 -112.6753 85° East 522 601 32,100 360 Climbing Salt Lake Center
03:51PM 44.0744 -112.4483 85° East 528 608 32,400 420 Climbing Salt Lake Center
03:52PM 44.0853 -112.2514 86° East 534 615 33,000 420 Climbing Salt Lake Center
03:53PM 44.0903 -112.0244 88° East 530 610 33,300 540 Climbing Salt Lake Center
03:54PM 44.0919 -111.8311 89° East 526 605 34,200 720 Climbing Salt Lake Center
03:55PM 44.0931 -111.6061 90° East 525 604 34,800 840 Climbing Salt Lake Center
03:56PM 44.0931 -111.4158 90° East 521 600 36,000 840 Climbing Salt Lake Center
03:57PM 44.0944 -111.2011 89° East 505 581 36,600 480 Climbing Salt Lake Center
03:58PM 44.0933 -111.0169 90° East 503 579 37,000 180 Climbing Salt Lake Center
03:59PM 44.0936 -110.7997 90° East 505 581 37,000  Level Salt Lake Center
04:00PM 44.0914 -110.6094 91° East 514 592 37,000  Level Salt Lake Center
04:01PM 44.0919 -110.3833 90° East 522 601 37,000  Level Salt Lake Center
04:02PM 44.0900 -110.1875 91° East 529 609 37,000  Level Salt Lake Center
04:03PM 44.0892 -109.9611 90° East 528 608 37,000  Level Salt Lake Center
04:04PM 44.0867 -109.7689 91° East 524 603 37,000  Level Salt Lake Center
04:06PM 44.0642 -109.3631 94° East 513 590 37,000  Level Salt Lake Center
04:07PM 44.0464 -109.1664 97° East 515 593 37,000  Level Salt Lake Center
04:08PM 44.0408 -108.9667 92° East 522 601 37,000  Level Salt Lake Center
04:09PM 44.0433 -108.7672 89° East 522 601 37,000  Level Salt Lake Center
04:10PM 44.0433 -108.5289 90° East 519 597 37,000  Level Salt Lake Center
04:11PM 44.0439 -108.3300 90° East 519 597 37,000  Level Salt Lake Center
04:12PM 44.0439 -108.1306 90° East 520 598 37,000  Level Salt Lake Center
04:13PM 44.0442 -107.9342 90° East 514 592 37,000  Level Salt Lake Center
04:14PM 44.0436 -107.7358 90° East 517 595 37,000  Level Salt Lake Center
04:15PM 44.0433 -107.4983 90° East 516 594 37,000  Level Salt Lake Center
04:16PM 44.0422 -107.3000 90° East 517 595 37,000  Level Salt Lake Center
04:17PM 44.0406 -107.1031 91° East 515 593 37,000  Level Salt Lake Center
04:18PM 44.0392 -106.9053 90° East 514 592 37,000  Level Salt Lake Center
04:19PM 44.0369 -106.7108 91° East 510 587 37,000  Level Salt Lake Center
04:20PM 44.0344 -106.5156 91° East 510 587 37,000  Level Salt Lake Center
04:22PM 44.0322 -106.3194 91° East 511 588 37,000  Level Salt Lake Center
04:23PM 44.0325 -106.1031 90° East 513 590 37,000  Level Salt Lake Center
04:24PM 44.0289 -105.8828 91° East 511 588 37,000  Level Salt Lake Center
04:25PM 44.0253 -105.6947 91° East 510 587 37,000  Level Salt Lake Center
04:26PM 44.0189 -105.4786 92° East 503 579 37,000  Level Salt Lake Center
04:27PM 44.0133 -105.2586 92° East 508 585 37,000  Level Denver Center
04:28PM 44.0072 -105.0408 92° East 505 581 37,000  Level Denver Center
04:29PM 44.0028 -104.8517 92° East 508 585 37,000  Level Denver Center
04:30PM 43.9972 -104.6317 92° East 509 586 37,000  Level Denver Center
04:31PM 43.9914 -104.4458 92° East 505 581 37,000  Level Denver Center
04:32PM 43.9833 -104.2258 93° East 508 585 37,000  Level Denver Center
04:33PM 43.9769 -104.0417 93° East 503 579 37,000  Level Denver Center
04:34PM 43.9703 -103.8556 93° East 503 579 37,000  Level Denver Center
04:35PM 43.9625 -103.6378 93° East 504 580 37,000  Level Denver Center
04:36PM 43.9544 -103.4542 93° East 501 577 37,000  Level Denver Center
04:37PM 43.9478 -103.2417 92° East 495 570 37,000  Level Denver Center
04:38PM 43.9403 -103.0569 93° East 497 572 37,000  Level Denver Center
04:39PM 43.9303 -102.8431 94° East 498 573 37,000  Level Denver Center
04:40PM 43.9214 -102.6739 94° East 500 575 37,000  Level Denver Center
04:42PM 43.9086 -102.4436 94° East 500 575 37,000  Level Denver Center
04:43PM 43.8939 -102.2119 95° East 502 578 37,000  Level Denver Center
04:44PM 43.8842 -102.0233 94° East 498 573 37,000  Level Denver Center
04:45PM 43.8750 -101.8361 94° East 493 567 37,000  Level Denver Center
04:46PM 43.8753 -101.6536 90° East 482 555 37,000  Level Denver Center
04:47PM 43.8689 -101.4283 92° East 489 563 37,000  Level Denver Center
04:48PM 43.8642 -101.2408 92° East 487 560 37,000  Level Denver Center
04:49PM 43.8589 -101.0553 92° East 484 557 37,000  Level Denver Center
04:50PM 43.8519 -100.8683 93° East 488 562 37,000  Level Denver Center
04:51PM 43.8464 -100.6822 92° East 486 559 37,000  Level Denver Center
04:52PM 43.8400 -100.4986 93° East 481 554 37,000  Level Denver Center
04:53PM 43.8317 -100.2742 93° East 486 559 37,000  Level Denver Center
04:54PM 43.8247 -100.0861 93° East 491 565 37,000  Level Denver Center
04:54PM 43.8236 -100.0519 93° East 488 562 37,000  Level Minneapolis Center
04:56PM 43.8136 -99.7911 93° East 487 560 37,000  Level Minneapolis Center
04:57PM 43.8056 -99.6036 93° East 490 564 37,000  Level Minneapolis Center
04:58PM 43.7972 -99.4186 94° East 485 558 37,000  Level Minneapolis Center
04:59PM 43.7906 -99.2317 93° East 487 560 37,000  Level Minneapolis Center
05:00PM 43.7781 -99.0167 95° East 477 549 37,000  Level Minneapolis Center
05:01PM 43.7681 -98.7986 94° East 476 548 37,000  Level Minneapolis Center
05:02PM 43.7611 -98.6386 93° East 475 547 37,000  Level Minneapolis Center
05:03PM 43.7492 -98.4219 94° East 472 543 37,000  Level Minneapolis Center
05:04PM 43.7386 -98.2403 95° East 475 547 37,000  Level Minneapolis Center
05:05PM 43.7294 -98.0583 94° East 477 549 37,000  Level Minneapolis Center
05:06PM 43.7211 -97.9133 94° East 475 547 37,000  Level Minneapolis Center
05:07PM 43.7086 -97.6969 94° East 475 547 37,000  Level Minneapolis Center
05:08PM 43.6969 -97.5164 95° East 474 545 37,000  Level Minneapolis Center
05:09PM 43.6842 -97.3044 95° East 466 536 37,000  Level Minneapolis Center
05:10PM 43.6728 -97.1267 95° East 467 537 37,000  Level Minneapolis Center
05:11PM 43.6597 -96.9528 96° East 462 532 37,000  Level Minneapolis Center
05:12PM 43.6489 -96.7792 95° East 459 528 37,000  Level Minneapolis Center
05:13PM 43.6381 -96.6081 95° East 455 524 37,000  Level Minneapolis Center
05:14PM 43.6233 -96.4033 96° East 452 520 37,000  Level Minneapolis Center
05:15PM 43.6111 -96.2328 96° East 452 520 37,000  Level Minneapolis Center
05:16PM 43.5983 -96.0628 96° East 451 519 37,000  Level Minneapolis Center
05:17PM 43.5858 -95.8922 96° East 452 520 37,000  Level Minneapolis Center
05:19PM 43.5728 -95.7169 96° East 461 531 37,000  Level Minneapolis Center
05:20PM 43.5561 -95.5042 96° East 468 539 37,000  Level Minneapolis Center
05:21PM 43.5394 -95.2936 96° East 466 536 37,000  Level Minneapolis Center
05:22PM 43.5250 -95.1175 96° East 466 536 37,000  Level Minneapolis Center
05:23PM 43.5100 -94.9444 97° East 461 531 37,000  Level Minneapolis Center
05:24PM 43.4953 -94.7706 97° East 459 528 37,000  Level Minneapolis Center
05:25PM 43.4769 -94.5628 97° East 458 527 37,000  Level Minneapolis Center
05:26PM 43.4625 -94.3908 97° East 456 525 37,000  Level Minneapolis Center
05:27PM 43.4453 -94.2183 98° East 457 526 37,000  Level Minneapolis Center
05:28PM 43.4297 -94.0453 97° East 459 528 37,000  Level Minneapolis Center
05:29PM 43.4136 -93.8739 97° East 458 527 37,000  Level Minneapolis Center
05:30PM 43.3978 -93.7031 97° East 457 526 37,000  Level Minneapolis Center
05:31PM 43.3778 -93.4978 98° East 456 525 37,000  Level Minneapolis Center
05:32PM 43.3653 -93.3619 97° East 454 522 37,000  Level Minneapolis Center
05:33PM 43.3447 -93.1581 98° East 454 522 37,000  Level Minneapolis Center
05:34PM 43.3281 -92.9883 98° East 454 522 37,000  Level Minneapolis Center
05:35PM 43.3106 -92.8181 98° East 454 522 37,000  Level Minneapolis Center
05:36PM 43.2883 -92.6156 99° East 451 519 37,000  Level Minneapolis Center
05:37PM 43.2717 -92.4467 98° East 450 518 37,000  Level Minneapolis Center
05:38PM 43.2531 -92.2772 99° East 452 520 37,000 -600 Level Minneapolis Center
05:39PM 43.2347 -92.1067 98° East 453 521 35,800 -1,680 Descending Minneapolis Center
05:40PM 43.2175 -91.9328 98° East 462 532 33,600 -2,040 Descending Minneapolis Center
05:42PM 43.1956 -91.7319 98° East 450 518 31,200 -1,200 Descending Minneapolis Center
05:43PM 43.1508 -91.5528 109° East 423 487 31,000 -120 Descending Minneapolis Center
05:44PM 43.1019 -91.4147 116° Southeast 407 468 31,000 -60 Level Minneapolis Center
05:45PM 43.0647 -91.3097 116° Southeast 394 453 30,900 -540 Descending Chicago Center
05:46PM 43.0094 -91.1856 121° Southeast 388 447 30,100 -1,020 Descending Chicago Center
05:47PM 42.9194 -91.1081 148° Southeast 383 441 28,900 -1,020 Descending Chicago Center
05:48PM 42.8372 -91.0267 144° Southeast 373 429 28,000 -1,080 Descending Chicago Center
05:49PM 42.7936 -90.8694 111° Southeast 371 427 26,700 -1,140 Descending Chicago Center
05:50PM 42.7608 -90.7400 109° East 366 421 25,700 -1,020 Descending Chicago Center
05:51PM 42.7297 -90.6108 108° East 362 417 24,600 -840 Descending Chicago Center
05:52PM 42.6981 -90.4847 109° East 356 410 24,000 -300 Descending Chicago Center
05:53PM 42.6594 -90.3353 109° East 353 406 24,000  Level Chicago Center
05:54PM 42.6275 -90.2097 109° East 355 409 24,000 -180 Level Chicago Center
05:55PM 42.5953 -90.0808 109° East 362 417 23,700 -660 Descending Chicago Center
05:56PM 42.5636 -89.9556 109° East 356 410 22,700 -1,140 Descending Chicago Center
05:57PM 42.5281 -89.8192 109° East 343 395 21,400 -1,260 Descending Chicago Center
05:58PM 42.5169 -89.6919 97° East 341 392 20,200 -1,200 Descending Chicago Center
05:59PM 42.5147 -89.5661 91° East 335 386 19,000 -1,200 Descending Chicago Center
06:00PM 42.5119 -89.4411 92° East 334 384 17,800 -1,140 Descending Chicago Center
06:01PM 42.5097 -89.2956 91° East 333 383 16,700 -1,200 Descending Chicago Center
06:02PM 42.4928 -89.1800 101° East 320 368 15,400 -1,260 Descending Chicago Center
06:03PM 42.4733 -89.0656 103° East 316 364 14,100 -1,260 Descending Chicago Center
06:04PM 42.4539 -88.9556 103° East 306 352 12,900 -1,200 Descending Chicago Center
06:05PM 42.4347 -88.8431 103° East 307 353 11,700 -1,260 Descending Chicago Center
06:06PM 42.4128 -88.7200 104° East 295 339 10,300 -1,260 Descending Chicago Center
06:07PM 42.3936 -88.6111 103° East 298 343 9,100 -660 Descending Chicago Center
06:08PM 42.3753 -88.5100 104° East 285 328 9,000 -180 Descending Chicago Center
06:09PM 42.3486 -88.4086 110° East 286 329 8,800 -1,020 Descending Chicago Center
06:10PM 42.3197 -88.3092 111° Southeast 277 319 7,000 -960 Descending Chicago Center
06:11PM 42.2631 -88.2442 140° Southeast 271 312 6,900 -60 Descending Chicago Center
06:13PM 42.2139 -88.1878 140° Southeast 241 277 6,900 -540 Level Chicago Center
06:14PM 42.1619 -88.1292 140° Southeast 211 243 5,800 -1,380 Descending Chicago Center
06:15PM 42.1183 -88.0800 140° Southeast 206 237 4,100 -1,620 Descending Chicago Center
06:15PM 42.1000 -88.0500 129° Southeast 188 216 3,300 -1,260 Descending Chicago TRACON
06:16PM 42.0667 -88.0167 143° Southeast 178 205 2,300 -960 Descending Chicago TRACON
06:17PM 42.0333 -87.9667 132° Southeast 142 163 1,400 -660 Descending Chicago TRACON
06:18PM 42.0000 -87.9500 160° South 139 160 1,000 -480 Descending Chicago TRACON